sensor_id;sensor_type;location;lat;lon;timestamp;pressure;altitude;pressure_sealevel;temperature;humidity
5413;BME280;2729;50.056;8.678;2023-01-28T00:02:20;101156.84;;;4.19;100.00
5413;BME280;2729;50.056;8.678;2023-01-28T00:04:47;101148.13;;;4.13;100.00
5413;BME280;2729;50.056;8.678;2023-01-28T00:07:13;101157.31;;;3.96;100.00
5413;BME280;2729;50.056;8.678;2023-01-28T00:09:39;101153.19;;;4.07;100.00
5413;BME280;2729;50.056;8.678;2023-01-28T00:12:05;101155.59;;;3.96;100.00
5413;BME280;2729;50.056;8.678;2023-01-28T00:14:31;101151.25;;;3.94;100.00
5413;BME280;2729;50.056;8.678;2023-01-28T00:16:57;101157.06;;;3.79;100.00
5413;BME280;2729;50.056;8.678;2023-01-28T00:19:23;101151.84;;;3.76;100.00
5413;BME280;2729;50.056;8.678;2023-01-28T00:21:49;101157.06;;;3.80;100.00
5413;BME280;2729;50.056;8.678;2023-01-28T00:24:15;101151.00;;;3.77;100.00
5413;BME280;2729;50.056;8.678;2023-01-28T00:26:41;101150.25;;;3.84;100.00
5413;BME280;2729;50.056;8.678;2023-01-28T00:29:08;101150.63;;;3.55;100.00
5413;BME280;2729;50.056;8.678;2023-01-28T00:31:35;101152.38;;;3.58;100.00
5413;BME280;2729;50.056;8.678;2023-01-28T00:34:02;101155.06;;;3.63;100.00
5413;BME280;2729;50.056;8.678;2023-01-28T00:36:28;101148.00;;;3.54;100.00
5413;BME280;2729;50.056;8.678;2023-01-28T00:38:56;101155.94;;;3.65;100.00
5413;BME280;2729;50.056;8.678;2023-01-28T00:41:24;101151.88;;;3.79;100.00
5413;BME280;2729;50.056;8.678;2023-01-28T00:43:50;101157.06;;;3.79;100.00
5413;BME280;2729;50.056;8.678;2023-01-28T00:46:17;101154.34;;;3.71;100.00
5413;BME280;2729;50.056;8.678;2023-01-28T00:48:44;101161.38;;;3.80;100.00
5413;BME280;2729;50.056;8.678;2023-01-28T00:51:14;101159.94;;;3.97;100.00
5413;BME280;2729;50.056;8.678;2023-01-28T00:53:42;101164.88;;;3.83;100.00
5413;BME280;2729;50.056;8.678;2023-01-28T00:56:11;101158.91;;;3.87;100.00
5413;BME280;2729;50.056;8.678;2023-01-28T00:58:37;101165.75;;;3.84;100.00
5413;BME280;2729;50.056;8.678;2023-01-28T01:01:22;101164.91;;;3.85;100.00
5413;BME280;2729;50.056;8.678;2023-01-28T01:03:49;101167.28;;;3.74;100.00
5413;BME280;2729;50.056;8.678;2023-01-28T01:06:23;101164.91;;;3.86;100.00
5413;BME280;2729;50.056;8.678;2023-01-28T01:08:50;101160.06;;;4.05;100.00
5413;BME280;2729;50.056;8.678;2023-01-28T01:11:17;101168.78;;;4.13;100.00
5413;BME280;2729;50.056;8.678;2023-01-28T01:13:43;101163.53;;;4.07;100.00
5413;BME280;2729;50.056;8.678;2023-01-28T01:16:14;101170.94;;;3.85;100.00
5413;BME280;2729;50.056;8.678;2023-01-28T01:18:42;101170.94;;;3.87;100.00
5413;BME280;2729;50.056;8.678;2023-01-28T01:21:12;101172.13;;;4.06;100.00
5413;BME280;2729;50.056;8.678;2023-01-28T01:23:39;101171.16;;;3.99;100.00
5413;BME280;2729;50.056;8.678;2023-01-28T01:26:06;101164.38;;;4.06;100.00
5413;BME280;2729;50.056;8.678;2023-01-28T01:28:32;101169.38;;;3.95;100.00
5413;BME280;2729;50.056;8.678;2023-01-28T01:31:00;101173.63;;;3.93;100.00
5413;BME280;2729;50.056;8.678;2023-01-28T01:33:28;101170.22;;;3.94;100.00
5413;BME280;2729;50.056;8.678;2023-01-28T01:35:55;101185.84;;;4.02;100.00
5413;BME280;2729;50.056;8.678;2023-01-28T01:38:21;101182.13;;;3.86;100.00
5413;BME280;2729;50.056;8.678;2023-01-28T01:40:46;101181.19;;;3.81;100.00
5413;BME280;2729;50.056;8.678;2023-01-28T01:43:17;101188.38;;;3.99;100.00
5413;BME280;2729;50.056;8.678;2023-01-28T01:45:46;101193.22;;;3.80;100.00
5413;BME280;2729;50.056;8.678;2023-01-28T01:48:18;101189.09;;;3.92;100.00
5413;BME280;2729;50.056;8.678;2023-01-28T01:50:53;101189.66;;;3.74;100.00
5413;BME280;2729;50.056;8.678;2023-01-28T01:53:22;101188.34;;;3.97;100.00
5413;BME280;2729;50.056;8.678;2023-01-28T01:55:51;101196.22;;;3.57;100.00
5413;BME280;2729;50.056;8.678;2023-01-28T01:58:22;101199.72;;;3.59;100.00
5413;BME280;2729;50.056;8.678;2023-01-28T02:00:51;101198.47;;;3.85;100.00
5413;BME280;2729;50.056;8.678;2023-01-28T02:03:27;101204.53;;;3.88;100.00
5413;BME280;2729;50.056;8.678;2023-01-28T02:05:54;101195.13;;;3.92;100.00
5413;BME280;2729;50.056;8.678;2023-01-28T02:08:20;101194.22;;;3.88;100.00
5413;BME280;2729;50.056;8.678;2023-01-28T02:21:34;101199.81;;;3.65;100.00
5413;BME280;2729;50.056;8.678;2023-01-28T02:26:53;101195.66;;;3.73;100.00
5413;BME280;2729;50.056;8.678;2023-01-28T02:29:27;101193.03;;;3.70;100.00
5413;BME280;2729;50.056;8.678;2023-01-28T02:34:48;101201.00;;;3.35;100.00
5413;BME280;2729;50.056;8.678;2023-01-28T02:37:26;101194.66;;;3.65;100.00
5413;BME280;2729;50.056;8.678;2023-01-28T02:39:57;101205.75;;;3.59;100.00
5413;BME280;2729;50.056;8.678;2023-01-28T02:42:26;101201.44;;;3.60;100.00
5413;BME280;2729;50.056;8.678;2023-01-28T02:44:54;101207.25;;;3.48;100.00
5413;BME280;2729;50.056;8.678;2023-01-28T02:47:21;101201.66;;;3.72;100.00
5413;BME280;2729;50.056;8.678;2023-01-28T02:50:10;101207.41;;;3.57;100.00
5413;BME280;2729;50.056;8.678;2023-01-28T02:53:19;101204.94;;;3.62;100.00
5413;BME280;2729;50.056;8.678;2023-01-28T02:56:27;101205.81;;;3.64;100.00
5413;BME280;2729;50.056;8.678;2023-01-28T02:59:13;101204.84;;;3.57;100.00
5413;BME280;2729;50.056;8.678;2023-01-28T03:02:22;101206.22;;;3.86;100.00
5413;BME280;2729;50.056;8.678;2023-01-28T03:05:02;101208.69;;;3.79;100.00
5413;BME280;2729;50.056;8.678;2023-01-28T03:07:34;101209.53;;;3.78;100.00
5413;BME280;2729;50.056;8.678;2023-01-28T03:10:05;101217.22;;;3.75;100.00
5413;BME280;2729;50.056;8.678;2023-01-28T03:12:34;101219.66;;;3.67;100.00
5413;BME280;2729;50.056;8.678;2023-01-28T03:15:34;101218.50;;;3.51;100.00
5413;BME280;2729;50.056;8.678;2023-01-28T03:18:39;101221.81;;;3.44;100.00
5413;BME280;2729;50.056;8.678;2023-01-28T03:21:31;101230.78;;;3.65;100.00
5413;BME280;2729;50.056;8.678;2023-01-28T03:24:23;101234.94;;;3.57;100.00
5413;BME280;2729;50.056;8.678;2023-01-28T03:27:13;101234.56;;;3.37;100.00
5413;BME280;2729;50.056;8.678;2023-01-28T03:30:11;101238.19;;;3.46;100.00
5413;BME280;2729;50.056;8.678;2023-01-28T03:33:00;101227.25;;;3.60;100.00
5413;BME280;2729;50.056;8.678;2023-01-28T03:35:45;101228.19;;;3.63;100.00
5413;BME280;2729;50.056;8.678;2023-01-28T03:38:31;101235.78;;;3.55;100.00
5413;BME280;2729;50.056;8.678;2023-01-28T03:41:00;101238.44;;;3.60;100.00
5413;BME280;2729;50.056;8.678;2023-01-28T03:43:28;101233.78;;;3.41;100.00
5413;BME280;2729;50.056;8.678;2023-01-28T03:45:55;101239.78;;;3.40;100.00
5413;BME280;2729;50.056;8.678;2023-01-28T03:48:23;101245.25;;;3.57;100.00
5413;BME280;2729;50.056;8.678;2023-01-28T03:50:50;101247.19;;;3.67;100.00
5413;BME280;2729;50.056;8.678;2023-01-28T03:53:18;101251.31;;;3.59;100.00
5413;BME280;2729;50.056;8.678;2023-01-28T03:55:47;101245.25;;;3.57;100.00
5413;BME280;2729;50.056;8.678;2023-01-28T03:58:14;101246.81;;;3.47;100.00
5413;BME280;2729;50.056;8.678;2023-01-28T04:00:40;101245.81;;;3.40;100.00
5413;BME280;2729;50.056;8.678;2023-01-28T04:03:15;101246.13;;;3.57;100.00
5413;BME280;2729;50.056;8.678;2023-01-28T04:06:06;101251.88;;;3.42;100.00
5413;BME280;2729;50.056;8.678;2023-01-28T04:08:51;101258.63;;;3.36;100.00
5413;BME280;2729;50.056;8.678;2023-01-28T04:11:30;101258.06;;;3.50;100.00
5413;BME280;2729;50.056;8.678;2023-01-28T04:13:57;101249.56;;;3.56;100.00
5413;BME280;2729;50.056;8.678;2023-01-28T04:16:24;101249.22;;;3.39;100.00
5413;BME280;2729;50.056;8.678;2023-01-28T04:18:51;101255.41;;;3.47;100.00
5413;BME280;2729;50.056;8.678;2023-01-28T04:21:17;101260.34;;;3.37;100.00
5413;BME280;2729;50.056;8.678;2023-01-28T04:26:35;101255.16;;;3.35;100.00
5413;BME280;2729;50.056;8.678;2023-01-28T04:29:02;101255.84;;;3.27;100.00
5413;BME280;2729;50.056;8.678;2023-01-28T04:31:29;101244.78;;;3.32;100.00
5413;BME280;2729;50.056;8.678;2023-01-28T04:34:14;101243.13;;;3.36;100.00
5413;BME280;2729;50.056;8.678;2023-01-28T04:36:52;101242.97;;;3.28;100.00
5413;BME280;2729;50.056;8.678;2023-01-28T04:39:36;101245.09;;;3.47;100.00
5413;BME280;2729;50.056;8.678;2023-01-28T04:42:15;101240.53;;;3.34;100.00
5413;BME280;2729;50.056;8.678;2023-01-28T04:44:52;101242.25;;;3.34;100.00
5413;BME280;2729;50.056;8.678;2023-01-28T04:47:38;101247.31;;;3.29;100.00
5413;BME280;2729;50.056;8.678;2023-01-28T04:50:25;101250.66;;;3.25;100.00
5413;BME280;2729;50.056;8.678;2023-01-28T04:53:06;101244.97;;;3.41;100.00
5413;BME280;2729;50.056;8.678;2023-01-28T04:55:46;101248.53;;;3.48;100.00
5413;BME280;2729;50.056;8.678;2023-01-28T04:58:13;101251.84;;;3.41;100.00
5413;BME280;2729;50.056;8.678;2023-01-28T05:00:40;101248.53;;;3.48;100.00
5413;BME280;2729;50.056;8.678;2023-01-28T05:03:07;101243.25;;;3.42;100.00
5413;BME280;2729;50.056;8.678;2023-01-28T05:05:33;101247.66;;;3.47;100.00
5413;BME280;2729;50.056;8.678;2023-01-28T05:08:14;101246.34;;;3.24;100.00
5413;BME280;2729;50.056;8.678;2023-01-28T05:10:40;101249.06;;;3.32;100.00
5413;BME280;2729;50.056;8.678;2023-01-28T05:13:08;101245.16;;;3.50;100.00
5413;BME280;2729;50.056;8.678;2023-01-28T05:15:34;101247.44;;;3.35;100.00
5413;BME280;2729;50.056;8.678;2023-01-28T05:18:00;101253.50;;;3.37;100.00
5413;BME280;2729;50.056;8.678;2023-01-28T05:20:32;101252.78;;;3.44;100.00
5413;BME280;2729;50.056;8.678;2023-01-28T05:22:59;101250.97;;;3.40;100.00
5413;BME280;2729;50.056;8.678;2023-01-28T05:25:34;101255.31;;;3.43;100.00
5413;BME280;2729;50.056;8.678;2023-01-28T05:28:01;101264.44;;;3.26;100.00
5413;BME280;2729;50.056;8.678;2023-01-28T05:30:26;101265.59;;;3.40;100.00
5413;BME280;2729;50.056;8.678;2023-01-28T05:32:56;101261.06;;;3.30;100.00
5413;BME280;2729;50.056;8.678;2023-01-28T05:35:22;101276.59;;;3.31;100.00
5413;BME280;2729;50.056;8.678;2023-01-28T05:37:48;101271.50;;;3.34;100.00
5413;BME280;2729;50.056;8.678;2023-01-28T05:40:16;101267.38;;;3.44;100.00
5413;BME280;2729;50.056;8.678;2023-01-28T05:42:42;101263.28;;;3.53;100.00
5413;BME280;2729;50.056;8.678;2023-01-28T05:45:31;101270.88;;;3.46;100.00
5413;BME280;2729;50.056;8.678;2023-01-28T05:48:10;101276.78;;;3.40;100.00
5413;BME280;2729;50.056;8.678;2023-01-28T05:50:46;101281.94;;;3.40;100.00
5413;BME280;2729;50.056;8.678;2023-01-28T05:53:30;101279.50;;;3.48;100.00
5413;BME280;2729;50.056;8.678;2023-01-28T05:55:57;101291.56;;;3.49;100.00
5413;BME280;2729;50.056;8.678;2023-01-28T05:58:23;101283.03;;;3.51;100.00
5413;BME280;2729;50.056;8.678;2023-01-28T06:00:49;101300.03;;;3.42;100.00
5413;BME280;2729;50.056;8.678;2023-01-28T06:03:22;101293.28;;;3.48;100.00
5413;BME280;2729;50.056;8.678;2023-01-28T06:05:48;101302.69;;;3.46;100.00
5413;BME280;2729;50.056;8.678;2023-01-28T06:08:14;101302.94;;;3.59;100.00
5413;BME280;2729;50.056;8.678;2023-01-28T06:10:40;101311.41;;;3.51;100.00
5413;BME280;2729;50.056;8.678;2023-01-28T06:13:06;101309.94;;;3.64;100.00
5413;BME280;2729;50.056;8.678;2023-01-28T06:15:35;101306.38;;;3.58;100.00
5413;BME280;2729;50.056;8.678;2023-01-28T06:18:23;101316.34;;;3.41;100.00
5413;BME280;2729;50.056;8.678;2023-01-28T06:20:50;101314.34;;;3.28;100.00
5413;BME280;2729;50.056;8.678;2023-01-28T06:23:16;101308.91;;;3.56;100.00
5413;BME280;2729;50.056;8.678;2023-01-28T06:25:42;101322.50;;;3.47;100.00
5413;BME280;2729;50.056;8.678;2023-01-28T06:28:11;101315.81;;;3.57;100.00
5413;BME280;2729;50.056;8.678;2023-01-28T06:30:37;101325.50;;;3.67;100.00
5413;BME280;2729;50.056;8.678;2023-01-28T06:33:03;101325.03;;;3.44;100.00
5413;BME280;2729;50.056;8.678;2023-01-28T06:35:28;101324.53;;;3.62;100.00
5413;BME280;2729;50.056;8.678;2023-01-28T06:37:54;101331.31;;;3.57;100.00
5413;BME280;2729;50.056;8.678;2023-01-28T06:40:20;101338.34;;;3.64;100.00
5413;BME280;2729;50.056;8.678;2023-01-28T06:42:48;101331.31;;;3.57;100.00
5413;BME280;2729;50.056;8.678;2023-01-28T06:45:14;101337.09;;;3.89;100.00
5413;BME280;2729;50.056;8.678;2023-01-28T06:54:13;101343.53;;;3.66;100.00
5413;BME280;2729;50.056;8.678;2023-01-28T06:56:40;101344.34;;;3.63;100.00
5413;BME280;2729;50.056;8.678;2023-01-28T06:59:06;101346.19;;;3.70;100.00
5413;BME280;2729;50.056;8.678;2023-01-28T07:01:32;101347.69;;;3.59;100.00
5413;BME280;2729;50.056;8.678;2023-01-28T07:03:58;101346.28;;;3.75;100.00
5413;BME280;2729;50.056;8.678;2023-01-28T07:06:24;101344.88;;;3.48;100.00
5413;BME280;2729;50.056;8.678;2023-01-28T07:08:52;101338.25;;;3.60;100.00
5413;BME280;2729;50.056;8.678;2023-01-28T07:11:18;101340.81;;;3.60;100.00
5413;BME280;2729;50.056;8.678;2023-01-28T07:13:44;101346.00;;;3.61;100.00
5413;BME280;2729;50.056;8.678;2023-01-28T07:16:11;101349.44;;;3.60;100.00
5413;BME280;2729;50.056;8.678;2023-01-28T07:18:37;101351.84;;;3.52;100.00
5413;BME280;2729;50.056;8.678;2023-01-28T07:21:03;101357.13;;;3.57;100.00
5413;BME280;2729;50.056;8.678;2023-01-28T07:23:30;101357.31;;;3.66;100.00
5413;BME280;2729;50.056;8.678;2023-01-28T07:26:02;101358.69;;;3.50;100.00
5413;BME280;2729;50.056;8.678;2023-01-28T07:28:28;101362.38;;;3.62;100.00
5413;BME280;2729;50.056;8.678;2023-01-28T07:30:54;101366.97;;;3.76;100.00
5413;BME280;2729;50.056;8.678;2023-01-28T07:33:20;101368.38;;;3.61;100.00
5413;BME280;2729;50.056;8.678;2023-01-28T07:35:47;101366.75;;;3.66;100.00
5413;BME280;2729;50.056;8.678;2023-01-28T07:38:13;101360.03;;;3.74;100.00
5413;BME280;2729;50.056;8.678;2023-01-28T07:40:40;101364.03;;;3.60;100.00
5413;BME280;2729;50.056;8.678;2023-01-28T07:43:10;101361.22;;;3.90;100.00
5413;BME280;2729;50.056;8.678;2023-01-28T07:45:37;101379.06;;;3.79;100.00
5413;BME280;2729;50.056;8.678;2023-01-28T07:48:06;101378.13;;;3.75;100.00
5413;BME280;2729;50.056;8.678;2023-01-28T07:50:35;101381.72;;;3.82;100.00
5413;BME280;2729;50.056;8.678;2023-01-28T07:53:03;101387.19;;;3.97;100.00
5413;BME280;2729;50.056;8.678;2023-01-28T07:55:30;101381.75;;;3.83;100.00
5413;BME280;2729;50.056;8.678;2023-01-28T07:57:59;101388.44;;;3.74;100.00
5413;BME280;2729;50.056;8.678;2023-01-28T08:00:28;101382.19;;;3.63;100.00
5413;BME280;2729;50.056;8.678;2023-01-28T08:02:57;101385.09;;;3.79;100.00
5413;BME280;2729;50.056;8.678;2023-01-28T08:05:24;101379.09;;;3.80;100.00
5413;BME280;2729;50.056;8.678;2023-01-28T08:07:51;101392.63;;;3.69;100.00
5413;BME280;2729;50.056;8.678;2023-01-28T08:10:18;101384.84;;;3.67;100.00
5413;BME280;2729;50.056;8.678;2023-01-28T08:12:55;101385.78;;;3.71;100.00
5413;BME280;2729;50.056;8.678;2023-01-28T08:15:23;101389.47;;;3.82;100.00
5413;BME280;2729;50.056;8.678;2023-01-28T08:17:50;101399.47;;;3.67;100.00
5413;BME280;2729;50.056;8.678;2023-01-28T08:20:18;101403.16;;;3.78;100.00
5413;BME280;2729;50.056;8.678;2023-01-28T08:22:45;101393.81;;;3.84;100.00
5413;BME280;2729;50.056;8.678;2023-01-28T08:25:11;101399.09;;;3.91;100.00
5413;BME280;2729;50.056;8.678;2023-01-28T08:27:37;101393.59;;;3.74;100.00
5413;BME280;2729;50.056;8.678;2023-01-28T08:30:03;101393.41;;;3.65;100.00
5413;BME280;2729;50.056;8.678;2023-01-28T08:32:29;101398.19;;;3.87;100.00
5413;BME280;2729;50.056;8.678;2023-01-28T08:34:55;101406.09;;;3.96;100.00
5413;BME280;2729;50.056;8.678;2023-01-28T08:37:22;101401.34;;;3.74;100.00
5413;BME280;2729;50.056;8.678;2023-01-28T08:39:48;101405.81;;;3.82;100.00
5413;BME280;2729;50.056;8.678;2023-01-28T08:42:15;101411.75;;;3.77;100.00
5413;BME280;2729;50.056;8.678;2023-01-28T08:44:41;101405.97;;;3.90;100.00
5413;BME280;2729;50.056;8.678;2023-01-28T08:47:07;101402.56;;;3.91;100.00
5413;BME280;2729;50.056;8.678;2023-01-28T08:49:33;101408.69;;;3.96;100.00
5413;BME280;2729;50.056;8.678;2023-01-28T08:51:59;101400.88;;;3.93;100.00
5413;BME280;2729;50.056;8.678;2023-01-28T08:54:25;101399.66;;;3.76;100.00
5413;BME280;2729;50.056;8.678;2023-01-28T08:56:51;101413.34;;;3.72;100.00
5413;BME280;2729;50.056;8.678;2023-01-28T08:59:17;101408.38;;;3.81;100.00
5413;BME280;2729;50.056;8.678;2023-01-28T09:01:43;101415.16;;;3.76;100.00
5413;BME280;2729;50.056;8.678;2023-01-28T09:04:09;101413.69;;;3.88;100.00
5413;BME280;2729;50.056;8.678;2023-01-28T09:06:35;101420.03;;;4.04;100.00
5413;BME280;2729;50.056;8.678;2023-01-28T09:09:01;101425.72;;;3.86;100.00
5413;BME280;2729;50.056;8.678;2023-01-28T09:11:28;101417.28;;;3.95;100.00
5413;BME280;2729;50.056;8.678;2023-01-28T09:13:56;101426.19;;;4.09;100.00
5413;BME280;2729;50.056;8.678;2023-01-28T09:16:22;101428.28;;;3.86;100.00
5413;BME280;2729;50.056;8.678;2023-01-28T09:18:48;101428.06;;;3.76;100.00
5413;BME280;2729;50.056;8.678;2023-01-28T09:21:16;101432.31;;;4.14;100.00
5413;BME280;2729;50.056;8.678;2023-01-28T09:23:42;101435.03;;;3.80;100.00
5413;BME280;2729;50.056;8.678;2023-01-28T09:26:08;101439.75;;;3.99;100.00
5413;BME280;2729;50.056;8.678;2023-01-28T09:28:34;101428.50;;;3.97;100.00
5413;BME280;2729;50.056;8.678;2023-01-28T09:31:02;101436.97;;;3.90;100.00
5413;BME280;2729;50.056;8.678;2023-01-28T09:33:29;101438.13;;;4.04;100.00
5413;BME280;2729;50.056;8.678;2023-01-28T09:35:55;101444.97;;;4.02;100.00
5413;BME280;2729;50.056;8.678;2023-01-28T09:38:21;101446.00;;;4.10;100.00
5413;BME280;2729;50.056;8.678;2023-01-28T09:40:47;101444.91;;;3.99;100.00
5413;BME280;2729;50.056;8.678;2023-01-28T09:43:30;101445.31;;;4.19;100.00
5413;BME280;2729;50.056;8.678;2023-01-28T09:46:02;101446.81;;;4.08;100.00
5413;BME280;2729;50.056;8.678;2023-01-28T09:48:39;101436.94;;;4.31;100.00
5413;BME280;2729;50.056;8.678;2023-01-28T09:51:09;101438.38;;;4.16;100.00
5413;BME280;2729;50.056;8.678;2023-01-28T09:53:41;101440.63;;;4.00;100.00
5413;BME280;2729;50.056;8.678;2023-01-28T09:56:24;101439.03;;;4.06;100.00
5413;BME280;2729;50.056;8.678;2023-01-28T09:58:50;101440.94;;;4.15;100.00
5413;BME280;2729;50.056;8.678;2023-01-28T10:01:37;101440.00;;;4.11;100.00
5413;BME280;2729;50.056;8.678;2023-01-28T10:10:10;101448.41;;;4.01;100.00
5413;BME280;2729;50.056;8.678;2023-01-28T10:12:49;101446.84;;;4.09;100.00
5413;BME280;2729;50.056;8.678;2023-01-28T10:18:03;101450.16;;;4.04;100.00
5413;BME280;2729;50.056;8.678;2023-01-28T10:20:41;101458.22;;;4.19;100.00
5413;BME280;2729;50.056;8.678;2023-01-28T10:23:27;101452.31;;;4.25;100.00
5413;BME280;2729;50.056;8.678;2023-01-28T10:25:58;101452.09;;;4.14;100.00
5413;BME280;2729;50.056;8.678;2023-01-28T10:28:28;101461.34;;;4.03;100.00
5413;BME280;2729;50.056;8.678;2023-01-28T10:30:55;101467.44;;;4.06;100.00
5413;BME280;2729;50.056;8.678;2023-01-28T10:35:54;101468.22;;;4.02;100.00
5413;BME280;2729;50.056;8.678;2023-01-28T10:38:22;101481.53;;;3.81;100.00
5413;BME280;2729;50.056;8.678;2023-01-28T10:40:50;101481.69;;;3.87;100.00
5413;BME280;2729;50.056;8.678;2023-01-28T10:43:19;101474.44;;;4.12;100.00
5413;BME280;2729;50.056;8.678;2023-01-28T10:46:00;101477.72;;;4.03;100.00
5413;BME280;2729;50.056;8.678;2023-01-28T10:51:12;101479.34;;;4.00;100.00
5413;BME280;2729;50.056;8.678;2023-01-28T10:53:42;101470.25;;;4.17;100.00
5413;BME280;2729;50.056;8.678;2023-01-28T10:56:15;101476.09;;;4.08;100.00
5413;BME280;2729;50.056;8.678;2023-01-28T10:59:01;101473.34;;;4.43;100.00
5413;BME280;2729;50.056;8.678;2023-01-28T11:01:39;101476.53;;;4.30;100.00
5413;BME280;2729;50.056;8.678;2023-01-28T11:04:15;101478.44;;;3.98;100.00
5413;BME280;2729;50.056;8.678;2023-01-28T11:06:41;101484.63;;;4.04;100.00
5413;BME280;2729;50.056;8.678;2023-01-28T11:09:31;101480.94;;;3.93;100.00
5413;BME280;2729;50.056;8.678;2023-01-28T11:12:31;101476.97;;;4.09;100.00
5413;BME280;2729;50.056;8.678;2023-01-28T11:15:02;101479.19;;;3.92;100.00
5413;BME280;2729;50.056;8.678;2023-01-28T11:17:31;101472.81;;;4.17;100.00
5413;BME280;2729;50.056;8.678;2023-01-28T11:20:00;101474.50;;;4.15;100.00
5413;BME280;2729;50.056;8.678;2023-01-28T11:22:38;101474.09;;;3.95;100.00
5413;BME280;2729;50.056;8.678;2023-01-28T11:25:28;101468.53;;;4.17;100.00
5413;BME280;2729;50.056;8.678;2023-01-28T11:27:55;101473.03;;;4.28;100.00
5413;BME280;2729;50.056;8.678;2023-01-28T11:30:28;101471.41;;;4.33;100.00
5413;BME280;2729;50.056;8.678;2023-01-28T11:32:56;101473.03;;;4.28;100.00
5413;BME280;2729;50.056;8.678;2023-01-28T11:35:26;101460.31;;;4.37;100.00
5413;BME280;2729;50.056;8.678;2023-01-28T11:37:56;101480.91;;;4.34;100.00
5413;BME280;2729;50.056;8.678;2023-01-28T11:40:22;101474.38;;;4.51;100.00
5413;BME280;2729;50.056;8.678;2023-01-28T11:42:50;101468.19;;;4.43;100.00
5413;BME280;2729;50.056;8.678;2023-01-28T11:46:16;101459.66;;;4.05;100.00
5413;BME280;2729;50.056;8.678;2023-01-28T11:51:49;101466.75;;;4.15;100.00
5413;BME280;2729;50.056;8.678;2023-01-28T11:54:30;101452.34;;;4.26;100.00
5413;BME280;2729;50.056;8.678;2023-01-28T12:03:02;101441.63;;;4.08;100.00
5413;BME280;2729;50.056;8.678;2023-01-28T12:05:52;101440.34;;;4.30;100.00
5413;BME280;2729;50.056;8.678;2023-01-28T12:08:23;101445.81;;;4.01;100.00
5413;BME280;2729;50.056;8.678;2023-01-28T12:13:37;101439.19;;;4.14;100.00
5413;BME280;2729;50.056;8.678;2023-01-28T12:16:17;101440.63;;;4.00;100.00
5413;BME280;2729;50.056;8.678;2023-01-28T12:28:00;101439.91;;;4.07;100.00
5413;BME280;2729;50.056;8.678;2023-01-28T12:30:39;101436.84;;;3.84;100.00
5413;BME280;2729;50.056;8.678;2023-01-28T12:34:02;101446.31;;;4.26;100.00
5413;BME280;2729;50.056;8.678;2023-01-28T12:39:34;101449.16;;;3.97;100.00
5413;BME280;2729;50.056;8.678;2023-01-28T12:42:16;101445.38;;;3.80;100.00
5413;BME280;2729;50.056;8.678;2023-01-28T12:44:53;101436.69;;;4.18;100.00
5413;BME280;2729;50.056;8.678;2023-01-28T12:47:26;101442.34;;;4.01;100.00
5413;BME280;2729;50.056;8.678;2023-01-28T12:50:04;101429.84;;;4.20;100.00
5413;BME280;2729;50.056;8.678;2023-01-28T12:52:39;101429.53;;;4.05;100.00
5413;BME280;2729;50.056;8.678;2023-01-28T12:55:17;101429.53;;;4.05;100.00
5413;BME280;2729;50.056;8.678;2023-01-28T12:57:46;101418.53;;;4.15;100.00
5413;BME280;2729;50.056;8.678;2023-01-28T13:00:32;101442.09;;;3.88;100.00
5413;BME280;2729;50.056;8.678;2023-01-28T13:03:10;101438.59;;;3.85;100.00
5413;BME280;2729;50.056;8.678;2023-01-28T13:05:43;101434.66;;;4.02;100.00
5413;BME280;2729;50.056;8.678;2023-01-28T13:08:37;101435.81;;;3.76;100.00
5413;BME280;2729;50.056;8.678;2023-01-28T13:11:04;101435.16;;;3.86;100.00
5413;BME280;2729;50.056;8.678;2023-01-28T13:13:37;101440.91;;;3.73;100.00
5413;BME280;2729;50.056;8.678;2023-01-28T13:16:07;101435.03;;;3.80;99.52
5413;BME280;2729;50.056;8.678;2023-01-28T13:21:13;101447.38;;;3.93;100.00
5413;BME280;2729;50.056;8.678;2023-01-28T13:23:47;101453.50;;;3.98;100.00
5413;BME280;2729;50.056;8.678;2023-01-28T13:28:43;101469.47;;;3.80;97.71
5413;BME280;2729;50.056;8.678;2023-01-28T13:31:11;101464.09;;;4.10;100.00
5413;BME280;2729;50.056;8.678;2023-01-28T13:34:01;101463.06;;;4.02;100.00
5413;BME280;2729;50.056;8.678;2023-01-28T13:36:38;101471.16;;;3.78;97.66
5413;BME280;2729;50.056;8.678;2023-01-28T13:39:23;101478.66;;;3.68;96.59
5413;BME280;2729;50.056;8.678;2023-01-28T13:41:53;101479.81;;;3.80;100.00
5413;BME280;2729;50.056;8.678;2023-01-28T13:44:32;101471.53;;;3.97;99.18
5413;BME280;2729;50.056;8.678;2023-01-28T13:47:29;101479.16;;;3.91;97.48
5413;BME280;2729;50.056;8.678;2023-01-28T13:50:04;101473.91;;;3.86;97.57
5413;BME280;2729;50.056;8.678;2023-01-28T13:52:35;101467.94;;;3.88;99.49
5413;BME280;2729;50.056;8.678;2023-01-28T13:55:17;101477.41;;;3.90;96.23
5413;BME280;2729;50.056;8.678;2023-01-28T14:09:29;101474.94;;;3.94;94.87
5413;BME280;2729;50.056;8.678;2023-01-28T14:17:46;101475.94;;;4.01;98.11
5413;BME280;2729;50.056;8.678;2023-01-28T14:20:19;101481.13;;;4.02;96.47
5413;BME280;2729;50.056;8.678;2023-01-28T14:22:47;101475.84;;;3.96;97.96
5413;BME280;2729;50.056;8.678;2023-01-28T14:25:28;101482.28;;;4.16;99.26
5413;BME280;2729;50.056;8.678;2023-01-28T14:27:58;101482.22;;;3.73;95.08
5413;BME280;2729;50.056;8.678;2023-01-28T14:30:53;101482.72;;;3.96;95.95
5413;BME280;2729;50.056;8.678;2023-01-28T14:33:20;101475.34;;;3.73;92.30
5413;BME280;2729;50.056;8.678;2023-01-28T14:35:47;101479.94;;;3.86;94.69
5413;BME280;2729;50.056;8.678;2023-01-28T14:38:18;101480.63;;;3.79;91.98
5413;BME280;2729;50.056;8.678;2023-01-28T14:40:50;101470.84;;;4.04;97.62
5413;BME280;2729;50.056;8.678;2023-01-28T14:43:21;101476.53;;;3.89;95.35
5413;BME280;2729;50.056;8.678;2023-01-28T14:46:26;101482.59;;;3.90;92.65
5413;BME280;2729;50.056;8.678;2023-01-28T14:49:25;101493.34;;;3.70;93.70
5413;BME280;2729;50.056;8.678;2023-01-28T14:52:27;101481.91;;;3.98;95.59
5413;BME280;2729;50.056;8.678;2023-01-28T14:55:17;101471.03;;;4.13;96.44
5413;BME280;2729;50.056;8.678;2023-01-28T14:57:52;101470.19;;;4.14;92.73
5413;BME280;2729;50.056;8.678;2023-01-28T15:00:26;101462.72;;;3.87;90.36
5413;BME280;2729;50.056;8.678;2023-01-28T15:02:52;101472.22;;;3.88;94.21
5413;BME280;2729;50.056;8.678;2023-01-28T15:05:23;101467.88;;;3.85;92.71
5413;BME280;2729;50.056;8.678;2023-01-28T15:07:49;101458.16;;;3.75;92.52